Portada
METAR-TAF:

METAR-TAF

Aeropuertos :

Aeropuerto de Burdeos-Mérignac

Burdeos, Francia

latitud: 44-50N, longitud: 000-42W, altitud: 49 m

Observación

El informe se hizo hace 16 minutos, a las 06:00 UTC
Viento 9 kt del norte-noreste
Temperatura 11°C
Humedad 76%
Presión 1030 hPa
Visibilidad 10 km o más
sin nubes por debajo de 1500 m y sin presencia de cumulonimbus.

METAR: LFBD 240600Z AUTO 02009KT CAVOK 11/07 Q1030 NOSIG

Hora: 08:16 (06:16 UTC)

Pronóstico

El informe se hizo hace 1 hora y 16 minutos, a las 05:00 UTC
Pronóstico válido del 24 a las 06 UTC al 25 a las 12 UTC
Viento 15 kt del norte-noreste
Visibilidad 10 km o más
Nubes dispersas a una altura de 3000 ft

TAF: LFBD 240500Z 2406/2512 03015KT 9999 SCT030 TX21/2415Z TN09/2506Z

Observaciones y pronósticos meteorológicos de más de 4000 aeropuertos (mensajes METAR y TAF).

Los puntos amarillos y rojos representan las estaciones disponibles.

Ponga el ratón en el punto deseado para ver el nombre de la estación.

Haga clic para ver las observaciones y los pronósticos meteorológicos.

Para cambiar el mapa : haga clic en los botones verdes con una cruz de color negro para hacer un zoom, en el botón verde con un guión para alejar o en las flechas verdes para mapas adyacentes.


METAR-TAF: